sensor_id;sensor_type;location;lat;lon;timestamp;P1;durP1;ratioP1;P2;durP2;ratioP2
50249;SDS011;36133;42.522;27.456;2023-07-31T00:00:44;6.20;;;4.22;;
50249;SDS011;36133;42.522;27.456;2023-07-31T00:03:11;5.68;;;4.32;;
50249;SDS011;36133;42.522;27.456;2023-07-31T00:05:37;7.55;;;4.95;;
50249;SDS011;36133;42.522;27.456;2023-07-31T00:08:02;8.18;;;5.25;;
50249;SDS011;36133;42.522;27.456;2023-07-31T00:10:28;13.60;;;6.25;;
50249;SDS011;36133;42.522;27.456;2023-07-31T00:12:54;8.38;;;6.30;;
50249;SDS011;36133;42.522;27.456;2023-07-31T00:15:19;10.20;;;6.68;;
50249;SDS011;36133;42.522;27.456;2023-07-31T00:17:45;12.68;;;6.80;;
50249;SDS011;36133;42.522;27.456;2023-07-31T00:20:11;9.25;;;6.57;;
50249;SDS011;36133;42.522;27.456;2023-07-31T00:22:36;11.50;;;6.43;;
50249;SDS011;36133;42.522;27.456;2023-07-31T00:25:02;12.75;;;7.07;;
50249;SDS011;36133;42.522;27.456;2023-07-31T00:27:28;8.77;;;6.93;;
50249;SDS011;36133;42.522;27.456;2023-07-31T00:29:53;11.73;;;7.00;;
50249;SDS011;36133;42.522;27.456;2023-07-31T00:32:19;9.90;;;6.93;;
50249;SDS011;36133;42.522;27.456;2023-07-31T00:34:45;11.70;;;7.43;;
50249;SDS011;36133;42.522;27.456;2023-07-31T00:37:10;12.88;;;7.65;;
50249;SDS011;36133;42.522;27.456;2023-07-31T00:39:36;12.38;;;6.97;;
50249;SDS011;36133;42.522;27.456;2023-07-31T00:42:01;11.68;;;7.32;;
50249;SDS011;36133;42.522;27.456;2023-07-31T00:44:27;12.73;;;7.28;;
50249;SDS011;36133;42.522;27.456;2023-07-31T00:46:53;12.48;;;8.40;;
50249;SDS011;36133;42.522;27.456;2023-07-31T00:49:21;12.27;;;7.57;;
50249;SDS011;36133;42.522;27.456;2023-07-31T00:51:47;13.65;;;6.95;;
50249;SDS011;36133;42.522;27.456;2023-07-31T00:54:13;11.45;;;6.88;;
50249;SDS011;36133;42.522;27.456;2023-07-31T00:56:38;13.10;;;6.43;;
50249;SDS011;36133;42.522;27.456;2023-07-31T00:59:06;11.73;;;6.20;;
50249;SDS011;36133;42.522;27.456;2023-07-31T01:01:32;11.20;;;7.95;;
50249;SDS011;36133;42.522;27.456;2023-07-31T01:03:57;11.43;;;6.57;;
50249;SDS011;36133;42.522;27.456;2023-07-31T01:11:56;10.20;;;6.10;;
50249;SDS011;36133;42.522;27.456;2023-07-31T01:14:25;8.65;;;5.95;;
50249;SDS011;36133;42.522;27.456;2023-07-31T01:16:51;14.15;;;6.70;;
50249;SDS011;36133;42.522;27.456;2023-07-31T01:19:17;11.82;;;8.30;;
50249;SDS011;36133;42.522;27.456;2023-07-31T01:26:57;15.80;;;12.32;;
50249;SDS011;36133;42.522;27.456;2023-07-31T01:29:35;10.20;;;7.07;;
50249;SDS011;36133;42.522;27.456;2023-07-31T01:32:14;7.60;;;5.68;;
50249;SDS011;36133;42.522;27.456;2023-07-31T01:34:43;7.80;;;6.60;;
50249;SDS011;36133;42.522;27.456;2023-07-31T01:37:09;8.65;;;6.13;;
50249;SDS011;36133;42.522;27.456;2023-07-31T01:39:35;9.02;;;6.13;;
50249;SDS011;36133;42.522;27.456;2023-07-31T01:42:00;9.43;;;6.60;;
50249;SDS011;36133;42.522;27.456;2023-07-31T01:44:26;6.80;;;6.10;;
50249;SDS011;36133;42.522;27.456;2023-07-31T01:46:52;9.85;;;6.60;;
50249;SDS011;36133;42.522;27.456;2023-07-31T01:49:17;8.60;;;6.55;;
50249;SDS011;36133;42.522;27.456;2023-07-31T01:51:43;12.05;;;6.82;;
50249;SDS011;36133;42.522;27.456;2023-07-31T01:54:09;11.50;;;6.85;;
50249;SDS011;36133;42.522;27.456;2023-07-31T01:56:34;8.02;;;6.75;;
50249;SDS011;36133;42.522;27.456;2023-07-31T01:59:00;8.60;;;7.25;;
50249;SDS011;36133;42.522;27.456;2023-07-31T02:01:26;15.35;;;13.25;;
50249;SDS011;36133;42.522;27.456;2023-07-31T02:03:51;19.65;;;17.42;;
50249;SDS011;36133;42.522;27.456;2023-07-31T02:06:17;18.88;;;15.95;;
50249;SDS011;36133;42.522;27.456;2023-07-31T02:08:43;19.15;;;11.93;;
50249;SDS011;36133;42.522;27.456;2023-07-31T02:11:08;16.92;;;12.30;;
50249;SDS011;36133;42.522;27.456;2023-07-31T02:13:34;19.02;;;12.10;;
50249;SDS011;36133;42.522;27.456;2023-07-31T02:15:59;18.35;;;14.88;;
50249;SDS011;36133;42.522;27.456;2023-07-31T02:18:26;21.45;;;14.98;;
50249;SDS011;36133;42.522;27.456;2023-07-31T02:20:52;24.80;;;17.35;;
50249;SDS011;36133;42.522;27.456;2023-07-31T02:23:20;26.95;;;17.30;;
50249;SDS011;36133;42.522;27.456;2023-07-31T02:25:46;28.30;;;21.50;;
50249;SDS011;36133;42.522;27.456;2023-07-31T02:28:12;36.47;;;21.95;;
50249;SDS011;36133;42.522;27.456;2023-07-31T02:30:38;27.20;;;22.88;;
50249;SDS011;36133;42.522;27.456;2023-07-31T02:33:04;18.65;;;15.70;;
50249;SDS011;36133;42.522;27.456;2023-07-31T02:35:30;20.38;;;16.33;;
50249;SDS011;36133;42.522;27.456;2023-07-31T02:37:58;34.45;;;22.23;;
50249;SDS011;36133;42.522;27.456;2023-07-31T02:40:24;18.80;;;16.42;;
50249;SDS011;36133;42.522;27.456;2023-07-31T02:42:49;22.83;;;18.95;;
50249;SDS011;36133;42.522;27.456;2023-07-31T02:45:15;23.67;;;17.65;;
50249;SDS011;36133;42.522;27.456;2023-07-31T02:47:40;20.92;;;15.68;;
50249;SDS011;36133;42.522;27.456;2023-07-31T02:50:06;14.77;;;10.63;;
50249;SDS011;36133;42.522;27.456;2023-07-31T02:52:32;17.38;;;11.43;;
50249;SDS011;36133;42.522;27.456;2023-07-31T02:54:58;16.17;;;11.25;;
50249;SDS011;36133;42.522;27.456;2023-07-31T02:57:23;17.67;;;11.73;;
50249;SDS011;36133;42.522;27.456;2023-07-31T02:59:49;18.58;;;11.95;;
50249;SDS011;36133;42.522;27.456;2023-07-31T03:02:14;17.52;;;11.93;;
50249;SDS011;36133;42.522;27.456;2023-07-31T03:04:40;12.05;;;9.50;;
50249;SDS011;36133;42.522;27.456;2023-07-31T03:07:06;10.00;;;8.02;;
50249;SDS011;36133;42.522;27.456;2023-07-31T03:09:32;11.20;;;8.40;;
50249;SDS011;36133;42.522;27.456;2023-07-31T03:11:57;14.85;;;8.88;;
50249;SDS011;36133;42.522;27.456;2023-07-31T03:14:23;12.90;;;8.82;;
50249;SDS011;36133;42.522;27.456;2023-07-31T03:16:51;12.13;;;8.75;;
50249;SDS011;36133;42.522;27.456;2023-07-31T03:19:16;12.35;;;8.07;;
50249;SDS011;36133;42.522;27.456;2023-07-31T03:21:42;11.05;;;7.90;;
50249;SDS011;36133;42.522;27.456;2023-07-31T03:24:08;11.70;;;8.38;;
50249;SDS011;36133;42.522;27.456;2023-07-31T03:26:33;13.73;;;9.38;;
50249;SDS011;36133;42.522;27.456;2023-07-31T03:29:00;11.55;;;8.23;;
50249;SDS011;36133;42.522;27.456;2023-07-31T03:31:29;10.23;;;8.25;;
50249;SDS011;36133;42.522;27.456;2023-07-31T03:33:54;12.02;;;8.98;;
50249;SDS011;36133;42.522;27.456;2023-07-31T03:36:20;12.15;;;7.30;;
50249;SDS011;36133;42.522;27.456;2023-07-31T03:38:49;11.00;;;7.22;;
50249;SDS011;36133;42.522;27.456;2023-07-31T03:41:16;9.40;;;7.30;;
50249;SDS011;36133;42.522;27.456;2023-07-31T03:43:42;8.52;;;6.53;;
50249;SDS011;36133;42.522;27.456;2023-07-31T03:46:07;12.13;;;6.80;;
50249;SDS011;36133;42.522;27.456;2023-07-31T03:48:33;14.10;;;7.05;;
50249;SDS011;36133;42.522;27.456;2023-07-31T03:50:59;11.65;;;7.22;;
50249;SDS011;36133;42.522;27.456;2023-07-31T03:53:24;14.35;;;6.68;;
50249;SDS011;36133;42.522;27.456;2023-07-31T03:55:50;12.23;;;6.38;;
50249;SDS011;36133;42.522;27.456;2023-07-31T03:58:15;14.13;;;6.38;;
50249;SDS011;36133;42.522;27.456;2023-07-31T04:00:41;10.25;;;6.45;;
50249;SDS011;36133;42.522;27.456;2023-07-31T04:03:07;8.98;;;5.82;;
50249;SDS011;36133;42.522;27.456;2023-07-31T04:05:33;10.18;;;6.82;;
50249;SDS011;36133;42.522;27.456;2023-07-31T04:07:58;14.23;;;6.90;;
50249;SDS011;36133;42.522;27.456;2023-07-31T04:10:24;14.90;;;7.22;;
50249;SDS011;36133;42.522;27.456;2023-07-31T04:12:50;11.27;;;7.63;;
50249;SDS011;36133;42.522;27.456;2023-07-31T04:15:15;13.57;;;7.68;;
50249;SDS011;36133;42.522;27.456;2023-07-31T04:17:41;16.80;;;8.45;;
50249;SDS011;36133;42.522;27.456;2023-07-31T04:20:07;16.75;;;8.73;;
50249;SDS011;36133;42.522;27.456;2023-07-31T04:22:33;23.63;;;9.68;;
50249;SDS011;36133;42.522;27.456;2023-07-31T04:24:59;32.22;;;17.50;;
50249;SDS011;36133;42.522;27.456;2023-07-31T04:27:24;42.50;;;28.55;;
50249;SDS011;36133;42.522;27.456;2023-07-31T04:29:50;42.45;;;32.92;;
50249;SDS011;36133;42.522;27.456;2023-07-31T04:32:16;28.77;;;18.38;;
50249;SDS011;36133;42.522;27.456;2023-07-31T04:34:41;17.35;;;11.75;;
50249;SDS011;36133;42.522;27.456;2023-07-31T04:37:07;19.60;;;12.30;;
50249;SDS011;36133;42.522;27.456;2023-07-31T04:39:33;16.95;;;10.75;;
50249;SDS011;36133;42.522;27.456;2023-07-31T04:41:59;15.40;;;9.85;;
50249;SDS011;36133;42.522;27.456;2023-07-31T04:44:25;17.90;;;9.70;;
50249;SDS011;36133;42.522;27.456;2023-07-31T04:46:53;12.75;;;9.20;;
50249;SDS011;36133;42.522;27.456;2023-07-31T04:49:18;16.08;;;8.60;;
50249;SDS011;36133;42.522;27.456;2023-07-31T04:51:44;15.95;;;9.77;;
50249;SDS011;36133;42.522;27.456;2023-07-31T04:54:10;12.18;;;9.15;;
50249;SDS011;36133;42.522;27.456;2023-07-31T04:56:37;16.73;;;9.25;;
50249;SDS011;36133;42.522;27.456;2023-07-31T04:59:03;13.65;;;8.63;;
50249;SDS011;36133;42.522;27.456;2023-07-31T05:01:29;12.95;;;8.13;;
50249;SDS011;36133;42.522;27.456;2023-07-31T05:03:57;10.32;;;8.25;;
50249;SDS011;36133;42.522;27.456;2023-07-31T05:06:23;16.48;;;7.93;;
50249;SDS011;36133;42.522;27.456;2023-07-31T05:08:49;12.45;;;8.20;;
50249;SDS011;36133;42.522;27.456;2023-07-31T05:11:14;12.88;;;7.95;;
50249;SDS011;36133;42.522;27.456;2023-07-31T05:13:40;14.95;;;7.60;;
50249;SDS011;36133;42.522;27.456;2023-07-31T05:16:06;14.13;;;7.63;;
50249;SDS011;36133;42.522;27.456;2023-07-31T05:18:31;12.10;;;7.35;;
50249;SDS011;36133;42.522;27.456;2023-07-31T05:20:57;10.85;;;7.13;;
50249;SDS011;36133;42.522;27.456;2023-07-31T05:23:22;15.63;;;5.35;;
50249;SDS011;36133;42.522;27.456;2023-07-31T05:25:48;13.18;;;5.13;;
50249;SDS011;36133;42.522;27.456;2023-07-31T05:28:13;10.57;;;4.53;;
50249;SDS011;36133;42.522;27.456;2023-07-31T05:30:39;19.98;;;5.32;;
50249;SDS011;36133;42.522;27.456;2023-07-31T05:33:05;11.38;;;3.97;;
50249;SDS011;36133;42.522;27.456;2023-07-31T05:35:33;16.60;;;4.82;;
50249;SDS011;36133;42.522;27.456;2023-07-31T05:37:59;13.43;;;5.15;;
50249;SDS011;36133;42.522;27.456;2023-07-31T05:40:24;17.65;;;4.70;;
50249;SDS011;36133;42.522;27.456;2023-07-31T05:42:50;8.68;;;4.55;;
50249;SDS011;36133;42.522;27.456;2023-07-31T05:45:15;15.57;;;5.35;;
50249;SDS011;36133;42.522;27.456;2023-07-31T05:47:41;7.07;;;4.72;;
50249;SDS011;36133;42.522;27.456;2023-07-31T05:50:07;14.48;;;4.70;;
50249;SDS011;36133;42.522;27.456;2023-07-31T05:52:33;13.57;;;4.05;;
50249;SDS011;36133;42.522;27.456;2023-07-31T05:54:58;8.73;;;4.53;;
50249;SDS011;36133;42.522;27.456;2023-07-31T05:57:24;9.90;;;5.18;;
50249;SDS011;36133;42.522;27.456;2023-07-31T05:59:52;13.52;;;4.97;;
50249;SDS011;36133;42.522;27.456;2023-07-31T06:02:18;8.15;;;4.82;;
50249;SDS011;36133;42.522;27.456;2023-07-31T06:04:44;13.32;;;5.38;;
50249;SDS011;36133;42.522;27.456;2023-07-31T06:07:09;11.32;;;5.72;;
50249;SDS011;36133;42.522;27.456;2023-07-31T06:09:35;10.70;;;5.50;;
50249;SDS011;36133;42.522;27.456;2023-07-31T06:12:01;14.10;;;5.20;;
50249;SDS011;36133;42.522;27.456;2023-07-31T06:14:27;14.35;;;5.35;;
50249;SDS011;36133;42.522;27.456;2023-07-31T06:16:53;12.23;;;5.50;;
50249;SDS011;36133;42.522;27.456;2023-07-31T06:19:18;16.10;;;5.88;;
50249;SDS011;36133;42.522;27.456;2023-07-31T06:21:45;12.70;;;5.10;;
50249;SDS011;36133;42.522;27.456;2023-07-31T06:24:11;17.67;;;4.43;;
50249;SDS011;36133;42.522;27.456;2023-07-31T06:26:37;13.57;;;5.38;;
50249;SDS011;36133;42.522;27.456;2023-07-31T06:29:03;13.50;;;5.68;;
50249;SDS011;36133;42.522;27.456;2023-07-31T06:31:29;18.02;;;4.53;;
50249;SDS011;36133;42.522;27.456;2023-07-31T06:33:54;10.60;;;4.68;;
50249;SDS011;36133;42.522;27.456;2023-07-31T06:36:20;16.27;;;4.75;;
50249;SDS011;36133;42.522;27.456;2023-07-31T06:38:46;11.55;;;4.28;;
50249;SDS011;36133;42.522;27.456;2023-07-31T06:41:12;12.68;;;3.58;;
50249;SDS011;36133;42.522;27.456;2023-07-31T06:43:38;14.13;;;4.10;;
50249;SDS011;36133;42.522;27.456;2023-07-31T06:46:07;14.85;;;3.80;;
50249;SDS011;36133;42.522;27.456;2023-07-31T06:48:34;49.83;;;5.72;;
50249;SDS011;36133;42.522;27.456;2023-07-31T06:51:04;12.35;;;3.67;;
50249;SDS011;36133;42.522;27.456;2023-07-31T06:53:30;5.85;;;2.67;;
50249;SDS011;36133;42.522;27.456;2023-07-31T06:55:57;3.72;;;2.40;;
50249;SDS011;36133;42.522;27.456;2023-07-31T06:58:33;7.07;;;2.60;;
50249;SDS011;36133;42.522;27.456;2023-07-31T07:00:59;3.17;;;2.40;;
50249;SDS011;36133;42.522;27.456;2023-07-31T07:03:25;4.70;;;2.72;;
50249;SDS011;36133;42.522;27.456;2023-07-31T07:05:52;4.22;;;2.80;;
50249;SDS011;36133;42.522;27.456;2023-07-31T07:08:24;18.50;;;3.60;;
50249;SDS011;36133;42.522;27.456;2023-07-31T07:10:53;6.28;;;2.50;;
50249;SDS011;36133;42.522;27.456;2023-07-31T07:13:19;4.00;;;2.58;;
50249;SDS011;36133;42.522;27.456;2023-07-31T07:15:51;5.13;;;2.75;;
50249;SDS011;36133;42.522;27.456;2023-07-31T07:18:23;3.30;;;2.85;;
50249;SDS011;36133;42.522;27.456;2023-07-31T07:20:50;4.28;;;2.60;;
50249;SDS011;36133;42.522;27.456;2023-07-31T07:23:24;5.57;;;2.90;;
50249;SDS011;36133;42.522;27.456;2023-07-31T07:25:51;4.50;;;2.78;;
50249;SDS011;36133;42.522;27.456;2023-07-31T07:30:56;7.57;;;2.80;;
50249;SDS011;36133;42.522;27.456;2023-07-31T07:33:35;6.28;;;2.90;;
50249;SDS011;36133;42.522;27.456;2023-07-31T07:36:03;5.25;;;2.40;;
50249;SDS011;36133;42.522;27.456;2023-07-31T07:38:33;3.45;;;2.70;;
50249;SDS011;36133;42.522;27.456;2023-07-31T07:41:04;2.95;;;2.58;;
50249;SDS011;36133;42.522;27.456;2023-07-31T07:43:51;4.43;;;2.80;;
50249;SDS011;36133;42.522;27.456;2023-07-31T07:46:20;4.57;;;2.80;;
50249;SDS011;36133;42.522;27.456;2023-07-31T07:48:59;6.90;;;3.30;;
50249;SDS011;36133;42.522;27.456;2023-07-31T07:51:26;4.13;;;3.30;;
50249;SDS011;36133;42.522;27.456;2023-07-31T07:53:56;5.10;;;2.97;;
50249;SDS011;36133;42.522;27.456;2023-07-31T07:56:23;4.78;;;2.90;;
50249;SDS011;36133;42.522;27.456;2023-07-31T07:58:57;4.95;;;2.85;;
50249;SDS011;36133;42.522;27.456;2023-07-31T08:01:26;8.50;;;3.05;;
50249;SDS011;36133;42.522;27.456;2023-07-31T08:04:01;5.10;;;2.97;;
50249;SDS011;36133;42.522;27.456;2023-07-31T08:06:27;5.78;;;3.17;;
50249;SDS011;36133;42.522;27.456;2023-07-31T08:08:59;3.55;;;2.50;;
50249;SDS011;36133;42.522;27.456;2023-07-31T08:11:40;5.35;;;3.00;;
50249;SDS011;36133;42.522;27.456;2023-07-31T08:14:15;6.10;;;2.65;;
50249;SDS011;36133;42.522;27.456;2023-07-31T08:16:54;6.85;;;2.45;;
50249;SDS011;36133;42.522;27.456;2023-07-31T08:19:25;7.30;;;2.88;;
50249;SDS011;36133;42.522;27.456;2023-07-31T08:21:54;3.95;;;3.20;;
50249;SDS011;36133;42.522;27.456;2023-07-31T08:24:24;6.22;;;2.85;;
50249;SDS011;36133;42.522;27.456;2023-07-31T08:26:49;5.85;;;2.92;;
50249;SDS011;36133;42.522;27.456;2023-07-31T08:29:18;6.13;;;3.20;;
50249;SDS011;36133;42.522;27.456;2023-07-31T08:31:53;6.33;;;3.07;;
50249;SDS011;36133;42.522;27.456;2023-07-31T08:34:20;14.13;;;3.38;;
50249;SDS011;36133;42.522;27.456;2023-07-31T08:36:52;4.97;;;2.83;;
50249;SDS011;36133;42.522;27.456;2023-07-31T08:39:18;5.78;;;3.35;;
50249;SDS011;36133;42.522;27.456;2023-07-31T08:41:47;32.38;;;4.00;;
50249;SDS011;36133;42.522;27.456;2023-07-31T08:44:16;4.72;;;3.17;;
50249;SDS011;36133;42.522;27.456;2023-07-31T08:46:44;4.28;;;2.63;;
50249;SDS011;36133;42.522;27.456;2023-07-31T08:49:25;6.45;;;3.50;;
50249;SDS011;36133;42.522;27.456;2023-07-31T08:52:06;8.70;;;3.65;;
50249;SDS011;36133;42.522;27.456;2023-07-31T08:54:35;5.47;;;3.25;;
50249;SDS011;36133;42.522;27.456;2023-07-31T08:57:12;4.30;;;2.83;;
50249;SDS011;36133;42.522;27.456;2023-07-31T08:59:47;5.07;;;2.60;;
50249;SDS011;36133;42.522;27.456;2023-07-31T09:02:19;3.50;;;3.20;;
50249;SDS011;36133;42.522;27.456;2023-07-31T09:04:51;3.58;;;2.75;;
50249;SDS011;36133;42.522;27.456;2023-07-31T09:07:37;3.03;;;2.58;;
50249;SDS011;36133;42.522;27.456;2023-07-31T09:10:14;7.13;;;4.22;;
50249;SDS011;36133;42.522;27.456;2023-07-31T09:12:52;3.70;;;2.83;;
50249;SDS011;36133;42.522;27.456;2023-07-31T09:15:31;3.65;;;2.70;;
50249;SDS011;36133;42.522;27.456;2023-07-31T09:18:01;3.63;;;2.65;;
50249;SDS011;36133;42.522;27.456;2023-07-31T09:20:52;5.68;;;2.40;;
50249;SDS011;36133;42.522;27.456;2023-07-31T09:23:45;6.85;;;2.70;;
50249;SDS011;36133;42.522;27.456;2023-07-31T09:26:34;3.15;;;2.35;;
50249;SDS011;36133;42.522;27.456;2023-07-31T09:29:28;4.57;;;2.80;;
50249;SDS011;36133;42.522;27.456;2023-07-31T09:32:01;4.68;;;3.30;;
50249;SDS011;36133;42.522;27.456;2023-07-31T09:34:37;5.43;;;3.42;;
50249;SDS011;36133;42.522;27.456;2023-07-31T09:37:11;5.80;;;3.80;;
50249;SDS011;36133;42.522;27.456;2023-07-31T09:39:49;7.95;;;3.47;;
50249;SDS011;36133;42.522;27.456;2023-07-31T09:42:26;10.63;;;3.75;;
50249;SDS011;36133;42.522;27.456;2023-07-31T09:45:10;8.10;;;5.95;;
50249;SDS011;36133;42.522;27.456;2023-07-31T09:50:55;9.90;;;4.63;;
50249;SDS011;36133;42.522;27.456;2023-07-31T09:53:34;6.63;;;4.60;;
50249;SDS011;36133;42.522;27.456;2023-07-31T09:56:08;6.30;;;3.63;;
50249;SDS011;36133;42.522;27.456;2023-07-31T09:58:34;6.82;;;4.30;;
50249;SDS011;36133;42.522;27.456;2023-07-31T10:01:04;7.82;;;5.07;;
50249;SDS011;36133;42.522;27.456;2023-07-31T10:03:34;6.88;;;5.00;;
50249;SDS011;36133;42.522;27.456;2023-07-31T10:06:02;9.18;;;5.75;;
50249;SDS011;36133;42.522;27.456;2023-07-31T10:08:30;4.90;;;4.18;;
50249;SDS011;36133;42.522;27.456;2023-07-31T10:11:03;4.35;;;3.80;;
50249;SDS011;36133;42.522;27.456;2023-07-31T10:13:39;7.15;;;4.15;;
50249;SDS011;36133;42.522;27.456;2023-07-31T10:16:17;4.63;;;4.10;;
50249;SDS011;36133;42.522;27.456;2023-07-31T10:18:43;5.50;;;4.95;;
50249;SDS011;36133;42.522;27.456;2023-07-31T10:21:11;5.03;;;4.30;;
50249;SDS011;36133;42.522;27.456;2023-07-31T10:23:45;6.75;;;4.60;;
50249;SDS011;36133;42.522;27.456;2023-07-31T10:26:14;6.38;;;4.72;;
50249;SDS011;36133;42.522;27.456;2023-07-31T10:28:42;7.43;;;4.90;;
50249;SDS011;36133;42.522;27.456;2023-07-31T10:31:16;7.75;;;4.40;;
50249;SDS011;36133;42.522;27.456;2023-07-31T10:33:45;9.50;;;5.55;;
50249;SDS011;36133;42.522;27.456;2023-07-31T10:36:18;6.82;;;5.05;;
50249;SDS011;36133;42.522;27.456;2023-07-31T10:38:49;8.95;;;5.43;;
50249;SDS011;36133;42.522;27.456;2023-07-31T10:41:17;6.13;;;5.30;;
50249;SDS011;36133;42.522;27.456;2023-07-31T10:44:03;7.45;;;4.95;;
50249;SDS011;36133;42.522;27.456;2023-07-31T10:46:44;8.07;;;4.32;;
50249;SDS011;36133;42.522;27.456;2023-07-31T10:49:12;6.40;;;4.13;;
50249;SDS011;36133;42.522;27.456;2023-07-31T10:51:51;8.80;;;4.32;;
50249;SDS011;36133;42.522;27.456;2023-07-31T10:54:22;6.50;;;5.00;;
50249;SDS011;36133;42.522;27.456;2023-07-31T10:56:50;28.48;;;6.60;;
50249;SDS011;36133;42.522;27.456;2023-07-31T10:59:17;9.25;;;4.50;;
50249;SDS011;36133;42.522;27.456;2023-07-31T11:01:56;8.43;;;4.80;;
50249;SDS011;36133;42.522;27.456;2023-07-31T11:04:30;4.70;;;4.10;;
50249;SDS011;36133;42.522;27.456;2023-07-31T11:07:01;12.50;;;4.38;;
50249;SDS011;36133;42.522;27.456;2023-07-31T11:09:33;6.82;;;3.85;;
50249;SDS011;36133;42.522;27.456;2023-07-31T11:11:59;9.23;;;4.22;;
50249;SDS011;36133;42.522;27.456;2023-07-31T11:14:25;5.55;;;4.07;;
50249;SDS011;36133;42.522;27.456;2023-07-31T11:16:51;5.85;;;3.70;;
50249;SDS011;36133;42.522;27.456;2023-07-31T11:19:24;5.78;;;3.83;;
50249;SDS011;36133;42.522;27.456;2023-07-31T11:21:59;10.25;;;3.97;;
50249;SDS011;36133;42.522;27.456;2023-07-31T11:24:25;6.53;;;3.88;;
50249;SDS011;36133;42.522;27.456;2023-07-31T11:26:51;4.72;;;3.45;;
50249;SDS011;36133;42.522;27.456;2023-07-31T11:29:18;5.72;;;3.65;;
50249;SDS011;36133;42.522;27.456;2023-07-31T11:31:53;4.63;;;3.17;;
50249;SDS011;36133;42.522;27.456;2023-07-31T11:34:18;7.78;;;3.45;;
50249;SDS011;36133;42.522;27.456;2023-07-31T11:36:54;7.10;;;3.45;;
50249;SDS011;36133;42.522;27.456;2023-07-31T11:39:24;7.03;;;4.40;;
50249;SDS011;36133;42.522;27.456;2023-07-31T11:41:50;9.68;;;4.40;;
50249;SDS011;36133;42.522;27.456;2023-07-31T11:44:18;8.73;;;4.28;;
50249;SDS011;36133;42.522;27.456;2023-07-31T11:46:44;4.10;;;3.65;;
50249;SDS011;36133;42.522;27.456;2023-07-31T11:49:10;6.22;;;3.60;;
50249;SDS011;36133;42.522;27.456;2023-07-31T11:51:36;5.88;;;3.38;;
50249;SDS011;36133;42.522;27.456;2023-07-31T11:54:02;5.18;;;3.70;;
50249;SDS011;36133;42.522;27.456;2023-07-31T11:56:28;8.10;;;4.38;;
50249;SDS011;36133;42.522;27.456;2023-07-31T11:58:58;7.43;;;4.07;;
50249;SDS011;36133;42.522;27.456;2023-07-31T12:01:25;5.60;;;4.28;;
50249;SDS011;36133;42.522;27.456;2023-07-31T12:03:55;4.95;;;3.60;;
50249;SDS011;36133;42.522;27.456;2023-07-31T12:06:22;6.13;;;4.00;;
50249;SDS011;36133;42.522;27.456;2023-07-31T12:09:04;4.70;;;4.05;;
50249;SDS011;36133;42.522;27.456;2023-07-31T12:11:30;7.15;;;4.20;;
50249;SDS011;36133;42.522;27.456;2023-07-31T12:13:57;6.03;;;3.65;;
50249;SDS011;36133;42.522;27.456;2023-07-31T12:16:25;6.45;;;3.70;;
50249;SDS011;36133;42.522;27.456;2023-07-31T12:18:52;4.32;;;3.20;;
50249;SDS011;36133;42.522;27.456;2023-07-31T12:21:18;5.68;;;2.50;;
50249;SDS011;36133;42.522;27.456;2023-07-31T12:23:45;4.20;;;2.63;;
50249;SDS011;36133;42.522;27.456;2023-07-31T12:26:12;4.15;;;2.47;;
50249;SDS011;36133;42.522;27.456;2023-07-31T12:28:45;3.50;;;2.40;;
50249;SDS011;36133;42.522;27.456;2023-07-31T12:31:16;3.85;;;2.95;;
50249;SDS011;36133;42.522;27.456;2023-07-31T12:33:43;3.17;;;2.53;;
50249;SDS011;36133;42.522;27.456;2023-07-31T12:36:11;3.58;;;2.88;;
50249;SDS011;36133;42.522;27.456;2023-07-31T12:38:41;3.88;;;2.70;;
50249;SDS011;36133;42.522;27.456;2023-07-31T12:41:13;3.72;;;2.25;;
50249;SDS011;36133;42.522;27.456;2023-07-31T12:43:40;3.38;;;2.53;;
50249;SDS011;36133;42.522;27.456;2023-07-31T12:46:07;4.70;;;3.17;;
50249;SDS011;36133;42.522;27.456;2023-07-31T12:48:33;3.55;;;2.30;;
50249;SDS011;36133;42.522;27.456;2023-07-31T12:50:59;4.47;;;2.63;;
50249;SDS011;36133;42.522;27.456;2023-07-31T12:53:25;2.55;;;2.35;;
50249;SDS011;36133;42.522;27.456;2023-07-31T12:55:52;7.80;;;3.20;;
50249;SDS011;36133;42.522;27.456;2023-07-31T12:58:18;3.30;;;3.00;;
50249;SDS011;36133;42.522;27.456;2023-07-31T13:00:44;10.18;;;3.08;;
50249;SDS011;36133;42.522;27.456;2023-07-31T13:03:10;4.90;;;2.80;;
50249;SDS011;36133;42.522;27.456;2023-07-31T13:05:36;6.05;;;3.20;;
50249;SDS011;36133;42.522;27.456;2023-07-31T13:08:02;10.02;;;3.30;;
50249;SDS011;36133;42.522;27.456;2023-07-31T13:10:27;4.50;;;2.90;;
50249;SDS011;36133;42.522;27.456;2023-07-31T13:12:54;14.32;;;3.70;;
50249;SDS011;36133;42.522;27.456;2023-07-31T13:15:23;4.50;;;3.33;;
50249;SDS011;36133;42.522;27.456;2023-07-31T13:17:51;4.65;;;3.30;;
50249;SDS011;36133;42.522;27.456;2023-07-31T13:20:17;4.72;;;4.03;;
50249;SDS011;36133;42.522;27.456;2023-07-31T13:22:43;4.35;;;3.95;;
50249;SDS011;36133;42.522;27.456;2023-07-31T13:25:27;5.72;;;4.13;;
50249;SDS011;36133;42.522;27.456;2023-07-31T13:28:11;13.85;;;4.38;;
50249;SDS011;36133;42.522;27.456;2023-07-31T13:30:39;4.35;;;3.95;;
50249;SDS011;36133;42.522;27.456;2023-07-31T13:33:05;5.22;;;3.72;;
50249;SDS011;36133;42.522;27.456;2023-07-31T13:35:31;5.43;;;3.70;;
50249;SDS011;36133;42.522;27.456;2023-07-31T13:37:59;5.18;;;3.85;;
50249;SDS011;36133;42.522;27.456;2023-07-31T13:40:25;4.10;;;3.35;;
50249;SDS011;36133;42.522;27.456;2023-07-31T13:42:51;4.10;;;3.70;;
50249;SDS011;36133;42.522;27.456;2023-07-31T13:45:18;5.57;;;4.60;;
50249;SDS011;36133;42.522;27.456;2023-07-31T13:47:44;4.18;;;3.47;;
50249;SDS011;36133;42.522;27.456;2023-07-31T13:50:10;4.00;;;3.60;;
50249;SDS011;36133;42.522;27.456;2023-07-31T13:52:38;4.40;;;4.00;;
50249;SDS011;36133;42.522;27.456;2023-07-31T13:55:04;6.13;;;3.05;;
50249;SDS011;36133;42.522;27.456;2023-07-31T13:57:31;4.07;;;3.60;;
50249;SDS011;36133;42.522;27.456;2023-07-31T14:00:03;25.23;;;4.22;;
50249;SDS011;36133;42.522;27.456;2023-07-31T14:02:33;4.40;;;3.60;;
50249;SDS011;36133;42.522;27.456;2023-07-31T14:04:59;6.50;;;4.40;;
50249;SDS011;36133;42.522;27.456;2023-07-31T14:07:27;5.10;;;4.15;;
50249;SDS011;36133;42.522;27.456;2023-07-31T14:09:58;5.78;;;4.20;;
50249;SDS011;36133;42.522;27.456;2023-07-31T14:12:33;4.90;;;3.90;;
50249;SDS011;36133;42.522;27.456;2023-07-31T14:15:02;10.65;;;4.90;;
50249;SDS011;36133;42.522;27.456;2023-07-31T14:17:31;6.03;;;4.32;;
50249;SDS011;36133;42.522;27.456;2023-07-31T14:19:58;6.55;;;4.40;;
50249;SDS011;36133;42.522;27.456;2023-07-31T14:22:28;8.57;;;4.18;;
50249;SDS011;36133;42.522;27.456;2023-07-31T14:24:57;6.88;;;4.22;;
50249;SDS011;36133;42.522;27.456;2023-07-31T14:27:26;7.57;;;4.05;;
50249;SDS011;36133;42.522;27.456;2023-07-31T14:29:51;6.20;;;4.10;;
50249;SDS011;36133;42.522;27.456;2023-07-31T14:32:17;8.38;;;4.50;;
50249;SDS011;36133;42.522;27.456;2023-07-31T14:34:43;5.70;;;4.05;;
50249;SDS011;36133;42.522;27.456;2023-07-31T14:37:20;5.57;;;4.85;;
50249;SDS011;36133;42.522;27.456;2023-07-31T14:39:46;5.75;;;4.38;;
50249;SDS011;36133;42.522;27.456;2023-07-31T14:42:12;5.57;;;4.95;;
50249;SDS011;36133;42.522;27.456;2023-07-31T14:44:46;7.88;;;5.00;;
50249;SDS011;36133;42.522;27.456;2023-07-31T14:47:12;11.40;;;5.00;;
50249;SDS011;36133;42.522;27.456;2023-07-31T14:49:38;8.68;;;5.18;;
50249;SDS011;36133;42.522;27.456;2023-07-31T14:52:07;6.85;;;4.55;;